sensor_id;sensor_type;location;lat;lon;timestamp;pressure;altitude;pressure_sealevel;temperature;humidity
83894;BME280;73920;51.902;6.374;2024-03-08T06:19:24;101606.06;;;-0.51;83.73
83894;BME280;73920;51.902;6.374;2024-03-08T06:21:50;101602.63;;;-0.37;85.12
83894;BME280;73920;51.902;6.374;2024-03-08T06:24:16;101606.16;;;-0.20;85.65
83894;BME280;73920;51.902;6.374;2024-03-08T06:26:42;101596.53;;;-0.08;86.09
83894;BME280;73920;51.902;6.374;2024-03-08T06:29:08;101598.28;;;0.06;86.26
83894;BME280;73920;51.902;6.374;2024-03-08T06:31:35;101595.66;;;0.19;85.71
83894;BME280;73920;51.902;6.374;2024-03-08T06:34:01;101595.66;;;0.31;85.11
83894;BME280;73920;51.902;6.374;2024-03-08T06:36:27;101593.88;;;0.45;84.83
83894;BME280;73920;51.902;6.374;2024-03-08T06:38:53;101593.00;;;0.56;84.30
83894;BME280;73920;51.902;6.374;2024-03-08T06:41:20;101586.81;;;0.66;83.83
83894;BME280;73920;51.902;6.374;2024-03-08T06:43:47;101590.31;;;0.74;83.81
83894;BME280;73920;51.902;6.374;2024-03-08T06:46:15;101587.69;;;0.83;83.15
83894;BME280;73920;51.902;6.374;2024-03-08T06:48:41;101582.41;;;0.90;82.23
83894;BME280;73920;51.902;6.374;2024-03-08T06:51:08;101591.12;;;1.00;82.02
83894;BME280;73920;51.902;6.374;2024-03-08T06:53:34;101591.97;;;1.08;81.28
83894;BME280;73920;51.902;6.374;2024-03-08T06:56:04;101585.81;;;1.15;80.60
83894;BME280;73920;51.902;6.374;2024-03-08T06:58:30;101584.00;;;1.23;81.00
83894;BME280;73920;51.902;6.374;2024-03-08T07:00:56;101589.25;;;1.29;80.96
83894;BME280;73920;51.902;6.374;2024-03-08T07:03:22;101594.47;;;1.38;80.01
83894;BME280;73920;51.902;6.374;2024-03-08T07:05:48;101589.19;;;1.44;80.26
83894;BME280;73920;51.902;6.374;2024-03-08T07:08:15;101585.63;;;1.52;79.04
83894;BME280;73920;51.902;6.374;2024-03-08T07:10:41;101587.31;;;1.60;78.75
83894;BME280;73920;51.902;6.374;2024-03-08T07:13:08;101579.37;;;1.65;78.21
83894;BME280;73920;51.902;6.374;2024-03-08T07:15:34;101582.00;;;1.69;78.18
83894;BME280;73920;51.902;6.374;2024-03-08T07:18:01;101586.31;;;1.78;77.61
83894;BME280;73920;51.902;6.374;2024-03-08T07:20:27;101575.75;;;1.84;77.32
83894;BME280;73920;51.902;6.374;2024-03-08T07:22:53;101585.38;;;1.91;77.01
83894;BME280;73920;51.902;6.374;2024-03-08T07:25:20;101580.03;;;1.98;77.24
83894;BME280;73920;51.902;6.374;2024-03-08T07:27:53;101583.47;;;2.08;76.56
83894;BME280;73920;51.902;6.374;2024-03-08T07:30:24;101579.88;;;2.17;75.80
83894;BME280;73920;51.902;6.374;2024-03-08T07:32:50;101570.16;;;2.23;75.87
83894;BME280;73920;51.902;6.374;2024-03-08T07:35:17;101577.13;;;2.30;75.73
83894;BME280;73920;51.902;6.374;2024-03-08T07:37:43;101576.16;;;2.37;74.90
83894;BME280;73920;51.902;6.374;2024-03-08T07:40:10;101572.59;;;2.44;75.50
83894;BME280;73920;51.902;6.374;2024-03-08T07:42:36;101573.38;;;2.51;74.73
83894;BME280;73920;51.902;6.374;2024-03-08T07:45:03;101572.41;;;2.61;74.60
83894;BME280;73920;51.902;6.374;2024-03-08T07:47:30;101568.81;;;2.68;74.29
83894;BME280;73920;51.902;6.374;2024-03-08T07:49:56;101566.97;;;2.76;74.45
83894;BME280;73920;51.902;6.374;2024-03-08T07:52:22;101561.63;;;2.81;73.16
83894;BME280;73920;51.902;6.374;2024-03-08T07:54:49;101559.78;;;2.87;73.10
83894;BME280;73920;51.902;6.374;2024-03-08T07:57:15;101552.66;;;2.95;73.51
83894;BME280;73920;51.902;6.374;2024-03-08T07:59:41;101559.63;;;3.03;73.31
83894;BME280;73920;51.902;6.374;2024-03-08T08:02:07;101556.84;;;3.13;72.42
83894;BME280;73920;51.902;6.374;2024-03-08T08:04:33;101553.22;;;3.22;72.17
83894;BME280;73920;51.902;6.374;2024-03-08T08:07:00;101555.69;;;3.34;71.95
83894;BME280;73920;51.902;6.374;2024-03-08T08:09:27;101546.69;;;3.47;72.35
83894;BME280;73920;51.902;6.374;2024-03-08T08:11:54;101553.53;;;3.62;71.31
83894;BME280;73920;51.902;6.374;2024-03-08T08:14:21;101540.12;;;3.74;70.90
83894;BME280;73920;51.902;6.374;2024-03-08T08:16:47;101547.00;;;3.85;71.11
83894;BME280;73920;51.902;6.374;2024-03-08T08:19:14;101538.00;;;3.95;70.09
83894;BME280;73920;51.902;6.374;2024-03-08T08:21:41;101526.28;;;4.10;70.35
83894;BME280;73920;51.902;6.374;2024-03-08T08:24:07;101531.25;;;4.28;69.64
83894;BME280;73920;51.902;6.374;2024-03-08T08:26:34;101515.94;;;4.45;69.72
83894;BME280;73920;51.902;6.374;2024-03-08T08:29:00;101519.91;;;4.69;68.92
83894;BME280;73920;51.902;6.374;2024-03-08T08:31:26;101510.25;;;5.08;68.05
83894;BME280;73920;51.902;6.374;2024-03-08T08:33:53;101504.22;;;5.78;67.92
83894;BME280;73920;51.902;6.374;2024-03-08T08:36:19;101496.69;;;6.65;66.02
83894;BME280;73920;51.902;6.374;2024-03-08T08:38:45;101497.78;;;7.46;62.32
83894;BME280;73920;51.902;6.374;2024-03-08T08:41:11;101495.81;;;8.06;58.11
83894;BME280;73920;51.902;6.374;2024-03-08T08:43:39;101492.69;;;8.46;57.73
83894;BME280;73920;51.902;6.374;2024-03-08T08:46:05;101491.03;;;8.90;54.32
83894;BME280;73920;51.902;6.374;2024-03-08T08:48:31;101489.47;;;9.31;53.92
83894;BME280;73920;51.902;6.374;2024-03-08T08:50:57;101485.34;;;9.67;52.88
83894;BME280;73920;51.902;6.374;2024-03-08T08:53:24;101483.94;;;10.22;52.93
83894;BME280;73920;51.902;6.374;2024-03-08T08:55:50;101473.50;;;10.77;51.56
83894;BME280;73920;51.902;6.374;2024-03-08T08:58:16;101458.78;;;11.06;49.94
83894;BME280;73920;51.902;6.374;2024-03-08T09:00:42;101468.81;;;11.57;48.28
83894;BME280;73920;51.902;6.374;2024-03-08T09:03:09;101475.53;;;11.84;46.02
83894;BME280;73920;51.902;6.374;2024-03-08T09:05:35;101467.28;;;12.06;46.99
83894;BME280;73920;51.902;6.374;2024-03-08T09:08:01;101470.34;;;12.50;45.13
83894;BME280;73920;51.902;6.374;2024-03-08T09:10:27;101457.31;;;12.59;44.98
83894;BME280;73920;51.902;6.374;2024-03-08T09:12:54;101462.25;;;12.84;44.44
83894;BME280;73920;51.902;6.374;2024-03-08T09:15:20;101451.94;;;13.09;43.50
83894;BME280;73920;51.902;6.374;2024-03-08T09:17:47;101442.78;;;12.96;44.06
83894;BME280;73920;51.902;6.374;2024-03-08T09:20:13;101439.91;;;13.16;43.82
83894;BME280;73920;51.902;6.374;2024-03-08T09:22:40;101443.28;;;13.51;43.83
83894;BME280;73920;51.902;6.374;2024-03-08T09:25:07;101438.22;;;13.76;42.96
83894;BME280;73920;51.902;6.374;2024-03-08T09:27:34;101437.00;;;13.82;42.79
83894;BME280;73920;51.902;6.374;2024-03-08T09:30:00;101428.84;;;13.84;40.68
83894;BME280;73920;51.902;6.374;2024-03-08T09:32:27;101427.91;;;13.69;41.80
83894;BME280;73920;51.902;6.374;2024-03-08T09:34:53;101414.25;;;13.58;42.08
83894;BME280;73920;51.902;6.374;2024-03-08T09:37:19;101413.13;;;13.46;41.30
83894;BME280;73920;51.902;6.374;2024-03-08T09:39:46;101410.63;;;13.43;42.39
83894;BME280;73920;51.902;6.374;2024-03-08T09:42:12;101401.47;;;13.77;41.99
83894;BME280;73920;51.902;6.374;2024-03-08T09:44:38;101398.69;;;14.08;41.67
83894;BME280;73920;51.902;6.374;2024-03-08T09:47:05;101394.06;;;14.40;40.56
83894;BME280;73920;51.902;6.374;2024-03-08T09:49:31;101386.09;;;14.81;39.28
83894;BME280;73920;51.902;6.374;2024-03-08T09:51:57;101374.62;;;15.06;38.24
83894;BME280;73920;51.902;6.374;2024-03-08T09:54:25;101375.06;;;15.12;37.96
83894;BME280;73920;51.902;6.374;2024-03-08T09:56:52;101360.88;;;14.96;38.23
83894;BME280;73920;51.902;6.374;2024-03-08T09:59:18;101371.34;;;15.15;39.35
83894;BME280;73920;51.902;6.374;2024-03-08T10:01:44;101374.31;;;15.10;38.11
83894;BME280;73920;51.902;6.374;2024-03-08T10:04:11;101369.37;;;14.90;39.26
83894;BME280;73920;51.902;6.374;2024-03-08T10:06:38;101369.69;;;14.57;38.19
83894;BME280;73920;51.902;6.374;2024-03-08T10:09:04;101358.91;;;14.43;38.70
83894;BME280;73920;51.902;6.374;2024-03-08T10:11:30;101361.22;;;14.35;40.74
83894;BME280;73920;51.902;6.374;2024-03-08T10:13:57;101349.75;;;14.74;40.17
83894;BME280;73920;51.902;6.374;2024-03-08T10:16:23;101354.56;;;15.24;40.29
83894;BME280;73920;51.902;6.374;2024-03-08T10:18:49;101352.63;;;15.80;37.87
83894;BME280;73920;51.902;6.374;2024-03-08T10:21:15;101347.72;;;15.99;37.45
83894;BME280;73920;51.902;6.374;2024-03-08T10:23:42;101352.03;;;16.01;37.35
83894;BME280;73920;51.902;6.374;2024-03-08T10:26:13;101348.34;;;15.90;36.69
83894;BME280;73920;51.902;6.374;2024-03-08T10:28:41;101338.44;;;15.63;36.75
83894;BME280;73920;51.902;6.374;2024-03-08T10:31:08;101335.75;;;15.51;37.08
83894;BME280;73920;51.902;6.374;2024-03-08T10:33:34;101327.66;;;15.63;37.31
83894;BME280;73920;51.902;6.374;2024-03-08T10:36:01;101330.28;;;15.77;36.86
83894;BME280;73920;51.902;6.374;2024-03-08T10:38:30;101325.09;;;15.74;37.10
83894;BME280;73920;51.902;6.374;2024-03-08T10:40:57;101327.50;;;15.92;36.26
83894;BME280;73920;51.902;6.374;2024-03-08T10:43:24;101320.19;;;16.06;37.31
83894;BME280;73920;51.902;6.374;2024-03-08T10:46:06;101316.44;;;16.34;36.14
83894;BME280;73920;51.902;6.374;2024-03-08T10:48:44;101298.94;;;16.27;36.21
83894;BME280;73920;51.902;6.374;2024-03-08T10:51:12;101320.94;;;16.21;35.82
83894;BME280;73920;51.902;6.374;2024-03-08T10:53:38;101309.72;;;16.14;35.85
83894;BME280;73920;51.902;6.374;2024-03-08T10:56:05;101304.50;;;15.61;37.41
83894;BME280;73920;51.902;6.374;2024-03-08T10:58:31;101295.16;;;14.58;38.93
83894;BME280;73920;51.902;6.374;2024-03-08T11:00:59;101295.47;;;13.67;40.38
83894;BME280;73920;51.902;6.374;2024-03-08T11:06:02;101287.78;;;12.53;44.98
83894;BME280;73920;51.902;6.374;2024-03-08T11:08:31;101291.47;;;12.19;44.99
83894;BME280;73920;51.902;6.374;2024-03-08T11:10:58;101287.87;;;11.86;44.67
83894;BME280;73920;51.902;6.374;2024-03-08T11:13:33;101284.87;;;11.57;45.42
83894;BME280;73920;51.902;6.374;2024-03-08T11:16:00;101283.16;;;11.39;46.59
83894;BME280;73920;51.902;6.374;2024-03-08T11:18:27;101268.16;;;11.18;47.00
83894;BME280;73920;51.902;6.374;2024-03-08T11:20:56;101266.63;;;10.95;46.91
83894;BME280;73920;51.902;6.374;2024-03-08T11:23:23;101266.28;;;10.84;48.07
83894;BME280;73920;51.902;6.374;2024-03-08T11:25:49;101255.47;;;10.68;47.25
83894;BME280;73920;51.902;6.374;2024-03-08T11:28:20;101252.78;;;10.50;47.74
83894;BME280;73920;51.902;6.374;2024-03-08T11:33:19;101239.16;;;10.37;49.10
83894;BME280;73920;51.902;6.374;2024-03-08T11:35:46;101237.50;;;10.34;48.62
83894;BME280;73920;51.902;6.374;2024-03-08T11:38:13;101232.44;;;10.28;48.38
83894;BME280;73920;51.902;6.374;2024-03-08T11:40:39;101192.53;;;10.05;48.10
83894;BME280;73920;51.902;6.374;2024-03-08T11:43:06;101230.13;;;10.21;48.80
83894;BME280;73920;51.902;6.374;2024-03-08T11:45:34;101225.66;;;10.21;48.53
83894;BME280;73920;51.902;6.374;2024-03-08T11:48:00;101219.28;;;10.24;48.16
83894;BME280;73920;51.902;6.374;2024-03-08T11:50:27;101224.72;;;10.22;48.55
83894;BME280;73920;51.902;6.374;2024-03-08T11:52:53;101225.94;;;10.15;47.53
83894;BME280;73920;51.902;6.374;2024-03-08T11:55:19;101219.25;;;10.05;48.78
83894;BME280;73920;51.902;6.374;2024-03-08T11:57:46;101206.75;;;10.06;48.40
83894;BME280;73920;51.902;6.374;2024-03-08T12:00:18;101204.94;;;10.06;48.29
83894;BME280;73920;51.902;6.374;2024-03-08T12:02:45;101207.47;;;10.09;49.50
83894;BME280;73920;51.902;6.374;2024-03-08T12:05:11;101201.88;;;10.15;50.49
83894;BME280;73920;51.902;6.374;2024-03-08T12:07:37;101201.75;;;10.18;48.88
83894;BME280;73920;51.902;6.374;2024-03-08T12:12:40;101183.56;;;10.06;49.50
83894;BME280;73920;51.902;6.374;2024-03-08T12:15:08;101179.03;;;10.08;50.20
83894;BME280;73920;51.902;6.374;2024-03-08T12:17:34;101185.47;;;10.04;48.85
83894;BME280;73920;51.902;6.374;2024-03-08T12:20:12;101183.88;;;10.00;50.40
83894;BME280;73920;51.902;6.374;2024-03-08T12:22:43;101173.03;;;10.03;50.13
83894;BME280;73920;51.902;6.374;2024-03-08T12:25:13;101170.44;;;10.02;49.88
83894;BME280;73920;51.902;6.374;2024-03-08T12:27:41;101156.94;;;10.05;49.85
83894;BME280;73920;51.902;6.374;2024-03-08T12:32:52;101160.75;;;9.99;49.38
83894;BME280;73920;51.902;6.374;2024-03-08T12:35:23;101146.69;;;9.96;49.75
83894;BME280;73920;51.902;6.374;2024-03-08T12:37:55;101147.84;;;9.90;50.17
83894;BME280;73920;51.902;6.374;2024-03-08T12:40:30;101146.91;;;9.91;51.26
83894;BME280;73920;51.902;6.374;2024-03-08T12:42:57;101131.72;;;9.92;49.38
83894;BME280;73920;51.902;6.374;2024-03-08T12:45:24;101141.56;;;9.91;49.91
83894;BME280;73920;51.902;6.374;2024-03-08T12:47:53;101139.69;;;9.93;50.11
83894;BME280;73920;51.902;6.374;2024-03-08T12:50:21;101130.59;;;9.97;50.71
83894;BME280;73920;51.902;6.374;2024-03-08T12:52:47;101127.72;;;10.02;50.06
83894;BME280;73920;51.902;6.374;2024-03-08T12:55:16;101117.09;;;10.00;49.68
83894;BME280;73920;51.902;6.374;2024-03-08T12:57:43;101092.19;;;9.81;49.53
83894;BME280;73920;51.902;6.374;2024-03-08T13:00:11;101113.03;;;9.92;49.58
83894;BME280;73920;51.902;6.374;2024-03-08T13:02:36;101104.19;;;9.91;50.84
83894;BME280;73920;51.902;6.374;2024-03-08T13:05:03;101100.41;;;9.95;50.30
83894;BME280;73920;51.902;6.374;2024-03-08T13:07:29;101096.62;;;9.99;50.37
83894;BME280;73920;51.902;6.374;2024-03-08T13:09:56;101087.84;;;9.97;49.91
83894;BME280;73920;51.902;6.374;2024-03-08T13:12:22;101088.72;;;9.98;50.69
83894;BME280;73920;51.902;6.374;2024-03-08T13:14:48;101087.69;;;10.00;50.16
83894;BME280;73920;51.902;6.374;2024-03-08T13:17:15;101080.72;;;9.98;50.05
83894;BME280;73920;51.902;6.374;2024-03-08T13:19:41;101080.75;;;9.96;49.98
83894;BME280;73920;51.902;6.374;2024-03-08T13:22:08;101073.56;;;9.98;50.08
83894;BME280;73920;51.902;6.374;2024-03-08T13:24:34;101073.63;;;9.97;49.61
83894;BME280;73920;51.902;6.374;2024-03-08T13:27:00;101071.09;;;9.94;49.54
83894;BME280;73920;51.902;6.374;2024-03-08T13:29:26;101076.28;;;9.97;49.49
83894;BME280;73920;51.902;6.374;2024-03-08T13:31:53;101055.94;;;9.94;49.29
83894;BME280;73920;51.902;6.374;2024-03-08T13:34:19;101061.13;;;9.97;49.79
83894;BME280;73920;51.902;6.374;2024-03-08T13:36:45;101068.22;;;9.98;51.37
83894;BME280;73920;51.902;6.374;2024-03-08T13:39:12;101052.97;;;10.00;50.46
83894;BME280;73920;51.902;6.374;2024-03-08T13:41:38;101045.03;;;9.99;50.24
83894;BME280;73920;51.902;6.374;2024-03-08T13:44:04;101054.06;;;9.96;50.24
83894;BME280;73920;51.902;6.374;2024-03-08T13:46:30;101043.37;;;9.96;50.48
83894;BME280;73920;51.902;6.374;2024-03-08T13:49:06;101037.16;;;9.96;51.13
83894;BME280;73920;51.902;6.374;2024-03-08T13:51:32;101036.16;;;9.98;50.46
83894;BME280;73920;51.902;6.374;2024-03-08T13:53:58;101037.00;;;9.99;50.90
83894;BME280;73920;51.902;6.374;2024-03-08T13:56:24;101030.81;;;9.98;50.88
83894;BME280;73920;51.902;6.374;2024-03-08T13:58:51;101034.28;;;10.00;51.48
83894;BME280;73920;51.902;6.374;2024-03-08T14:01:17;101014.62;;;10.01;52.18
83894;BME280;73920;51.902;6.374;2024-03-08T14:03:43;101006.63;;;10.01;50.91
83894;BME280;73920;51.902;6.374;2024-03-08T14:06:10;101004.16;;;9.97;51.07
83894;BME280;73920;51.902;6.374;2024-03-08T14:08:36;101000.63;;;9.96;51.92
83894;BME280;73920;51.902;6.374;2024-03-08T14:11:03;100996.09;;;9.98;51.84
83894;BME280;73920;51.902;6.374;2024-03-08T14:13:29;100995.12;;;9.99;50.48
83894;BME280;73920;51.902;6.374;2024-03-08T14:15:55;100992.41;;;10.01;51.11
83894;BME280;73920;51.902;6.374;2024-03-08T14:18:23;100983.56;;;9.99;51.00
83894;BME280;73920;51.902;6.374;2024-03-08T14:20:49;100980.06;;;9.98;50.82
83894;BME280;73920;51.902;6.374;2024-03-08T14:23:15;100977.41;;;9.98;51.13
83894;BME280;73920;51.902;6.374;2024-03-08T14:25:41;100973.06;;;9.96;51.11
83894;BME280;73920;51.902;6.374;2024-03-08T14:28:08;100946.97;;;9.83;50.46
83894;BME280;73920;51.902;6.374;2024-03-08T14:30:34;100965.91;;;9.96;50.76
83894;BME280;73920;51.902;6.374;2024-03-08T14:33:04;100961.44;;;9.97;51.34
83894;BME280;73920;51.902;6.374;2024-03-08T14:35:31;100955.31;;;9.95;51.83
83894;BME280;73920;51.902;6.374;2024-03-08T14:37:58;100947.22;;;9.96;50.89
83894;BME280;73920;51.902;6.374;2024-03-08T14:40:25;100944.63;;;9.95;50.93
83894;BME280;73920;51.902;6.374;2024-03-08T14:42:51;100943.75;;;9.94;50.95
83894;BME280;73920;51.902;6.374;2024-03-08T14:45:18;100941.00;;;9.96;50.33
83894;BME280;73920;51.902;6.374;2024-03-08T14:47:48;100942.81;;;9.95;50.73
83894;BME280;73920;51.902;6.374;2024-03-08T14:50:14;100941.00;;;9.96;50.41
83894;BME280;73920;51.902;6.374;2024-03-08T14:52:40;100939.34;;;9.93;49.20
83894;BME280;73920;51.902;6.374;2024-03-08T14:55:07;100927.91;;;9.91;50.52
83894;BME280;73920;51.902;6.374;2024-03-08T14:57:34;100927.91;;;9.91;49.74
83894;BME280;73920;51.902;6.374;2024-03-08T15:00:00;100925.34;;;9.88;50.05
83894;BME280;73920;51.902;6.374;2024-03-08T15:02:26;100919.09;;;9.89;50.52
83894;BME280;73920;51.902;6.374;2024-03-08T15:04:52;100915.63;;;9.87;50.46
83894;BME280;73920;51.902;6.374;2024-03-08T15:07:18;100911.37;;;9.83;50.80
83894;BME280;73920;51.902;6.374;2024-03-08T15:09:45;100913.09;;;9.84;51.32
83894;BME280;73920;51.902;6.374;2024-03-08T15:12:11;100906.81;;;9.85;50.30
83894;BME280;73920;51.902;6.374;2024-03-08T15:14:40;100903.44;;;9.81;50.77
83894;BME280;73920;51.902;6.374;2024-03-08T15:17:07;100906.12;;;9.81;51.82
83894;BME280;73920;51.902;6.374;2024-03-08T15:19:33;100903.53;;;9.80;50.80
83894;BME280;73920;51.902;6.374;2024-03-08T15:22:00;100886.81;;;9.76;50.91
83894;BME280;73920;51.902;6.374;2024-03-08T15:24:26;100886.81;;;9.76;51.05
83894;BME280;73920;51.902;6.374;2024-03-08T15:26:52;100886.16;;;9.71;50.42
83894;BME280;73920;51.902;6.374;2024-03-08T15:29:18;100880.87;;;9.70;51.20
83894;BME280;73920;51.902;6.374;2024-03-08T15:31:44;100877.28;;;9.71;51.82
83894;BME280;73920;51.902;6.374;2024-03-08T15:34:11;100870.31;;;9.68;51.74
83894;BME280;73920;51.902;6.374;2024-03-08T15:36:37;100868.56;;;9.67;50.53
83894;BME280;73920;51.902;6.374;2024-03-08T15:39:03;100858.09;;;9.63;50.68
83894;BME280;73920;51.902;6.374;2024-03-08T15:41:30;100855.59;;;9.60;50.44
83894;BME280;73920;51.902;6.374;2024-03-08T15:43:56;100853.09;;;9.57;50.83
83894;BME280;73920;51.902;6.374;2024-03-08T15:46:22;100854.19;;;9.53;51.31
83894;BME280;73920;51.902;6.374;2024-03-08T15:48:49;100845.41;;;9.51;52.16
83894;BME280;73920;51.902;6.374;2024-03-08T15:51:16;100845.47;;;9.49;51.74
83894;BME280;73920;51.902;6.374;2024-03-08T15:53:42;100852.69;;;9.47;51.53
83894;BME280;73920;51.902;6.374;2024-03-08T15:56:08;100847.47;;;9.44;52.00
83894;BME280;73920;51.902;6.374;2024-03-08T15:58:35;100844.09;;;9.40;50.94
83894;BME280;73920;51.902;6.374;2024-03-08T16:01:01;100844.25;;;9.37;50.94
83894;BME280;73920;51.902;6.374;2024-03-08T16:03:27;100837.34;;;9.33;51.29
83894;BME280;73920;51.902;6.374;2024-03-08T16:05:54;100832.09;;;9.32;52.93
83894;BME280;73920;51.902;6.374;2024-03-08T16:08:20;100826.06;;;9.28;52.77
83894;BME280;73920;51.902;6.374;2024-03-08T16:10:53;100833.41;;;9.23;53.35
83894;BME280;73920;51.902;6.374;2024-03-08T16:13:21;100828.28;;;9.19;53.52
83894;BME280;73920;51.902;6.374;2024-03-08T16:15:51;100820.37;;;9.17;52.87
83894;BME280;73920;51.902;6.374;2024-03-08T16:18:19;100822.41;;;9.12;52.52
83894;BME280;73920;51.902;6.374;2024-03-08T16:20:46;100825.22;;;9.09;52.35
83894;BME280;73920;51.902;6.374;2024-03-08T16:23:12;100814.84;;;9.03;52.90
83894;BME280;73920;51.902;6.374;2024-03-08T16:25:38;100821.94;;;9.04;53.36
83894;BME280;73920;51.902;6.374;2024-03-08T16:28:05;100816.87;;;8.98;52.81
83894;BME280;73920;51.902;6.374;2024-03-08T16:30:31;100825.91;;;8.96;53.62
83894;BME280;73920;51.902;6.374;2024-03-08T16:32:57;100814.66;;;8.89;53.87
83894;BME280;73920;51.902;6.374;2024-03-08T16:35:24;100814.81;;;8.86;53.58
83894;BME280;73920;51.902;6.374;2024-03-08T16:37:50;100811.56;;;8.79;54.08
83894;BME280;73920;51.902;6.374;2024-03-08T16:40:16;100816.16;;;8.76;54.23
83894;BME280;73920;51.902;6.374;2024-03-08T16:42:46;100815.59;;;8.69;54.57
83894;BME280;73920;51.902;6.374;2024-03-08T16:45:13;100810.47;;;8.65;53.70
83894;BME280;73920;51.902;6.374;2024-03-08T16:47:39;100807.97;;;8.62;53.34
83894;BME280;73920;51.902;6.374;2024-03-08T16:50:08;100806.37;;;8.58;53.44
83894;BME280;73920;51.902;6.374;2024-03-08T16:52:35;100803.94;;;8.53;54.21
83894;BME280;73920;51.902;6.374;2024-03-08T16:55:02;100805.88;;;8.50;54.64
83894;BME280;73920;51.902;6.374;2024-03-08T16:57:29;100803.56;;;8.42;54.39
83894;BME280;73920;51.902;6.374;2024-03-08T16:59:55;100799.37;;;8.36;54.97
83894;BME280;73920;51.902;6.374;2024-03-08T17:02:21;100805.78;;;8.32;54.91
83894;BME280;73920;51.902;6.374;2024-03-08T17:04:48;100804.25;;;8.27;55.30
83894;BME280;73920;51.902;6.374;2024-03-08T17:07:14;100805.31;;;8.23;55.24
83894;BME280;73920;51.902;6.374;2024-03-08T17:09:40;100805.50;;;8.18;55.38
83894;BME280;73920;51.902;6.374;2024-03-08T17:12:07;100817.03;;;8.19;55.52
83894;BME280;73920;51.902;6.374;2024-03-08T17:14:33;100808.41;;;8.14;55.74
83894;BME280;73920;51.902;6.374;2024-03-08T17:16:59;100798.16;;;8.05;56.38
83894;BME280;73920;51.902;6.374;2024-03-08T17:19:26;100807.28;;;7.99;56.61
83894;BME280;73920;51.902;6.374;2024-03-08T17:21:53;100804.09;;;7.91;57.03
83894;BME280;73920;51.902;6.374;2024-03-08T17:24:19;100807.16;;;7.82;56.98
83894;BME280;73920;51.902;6.374;2024-03-08T17:26:45;100798.53;;;7.77;57.07
83894;BME280;73920;51.902;6.374;2024-03-08T17:29:12;100796.00;;;7.74;57.25
83894;BME280;73920;51.902;6.374;2024-03-08T17:31:38;100798.84;;;7.69;57.76
83894;BME280;73920;51.902;6.374;2024-03-08T17:34:04;100800.78;;;7.66;57.70
83894;BME280;73920;51.902;6.374;2024-03-08T17:36:30;100794.62;;;7.64;58.12
83894;BME280;73920;51.902;6.374;2024-03-08T17:38:57;100795.78;;;7.58;58.26
83894;BME280;73920;51.902;6.374;2024-03-08T17:41:24;100795.09;;;7.53;58.34
83894;BME280;73920;51.902;6.374;2024-03-08T17:43:50;100801.56;;;7.48;58.74
83894;BME280;73920;51.902;6.374;2024-03-08T17:46:16;100800.84;;;7.44;59.08
83894;BME280;73920;51.902;6.374;2024-03-08T17:48:42;100805.56;;;7.37;59.27
83894;BME280;73920;51.902;6.374;2024-03-08T17:51:09;100804.81;;;7.34;59.22
83894;BME280;73920;51.902;6.374;2024-03-08T17:53:35;100810.31;;;7.29;58.90
83894;BME280;73920;51.902;6.374;2024-03-08T17:56:01;100803.41;;;7.25;59.56
83894;BME280;73920;51.902;6.374;2024-03-08T17:58:27;100810.69;;;7.20;59.45
83894;BME280;73920;51.902;6.374;2024-03-08T18:00:54;100803.75;;;7.16;59.86
83894;BME280;73920;51.902;6.374;2024-03-08T18:03:20;100803.97;;;7.12;60.01
83894;BME280;73920;51.902;6.374;2024-03-08T18:05:46;100811.25;;;7.07;60.01
83894;BME280;73920;51.902;6.374;2024-03-08T18:08:13;100805.28;;;7.02;60.46
83894;BME280;73920;51.902;6.374;2024-03-08T18:10:39;100813.44;;;6.97;60.70
83894;BME280;73920;51.902;6.374;2024-03-08T18:13:05;100809.16;;;6.93;60.77
83894;BME280;73920;51.902;6.374;2024-03-08T18:15:32;100808.41;;;6.89;60.92
83894;BME280;73920;51.902;6.374;2024-03-08T18:17:59;100807.59;;;6.87;60.99
83894;BME280;73920;51.902;6.374;2024-03-08T18:20:28;100805.16;;;6.83;61.29
83894;BME280;73920;51.902;6.374;2024-03-08T18:22:57;100808.84;;;6.79;61.29
83894;BME280;73920;51.902;6.374;2024-03-08T18:25:25;100799.25;;;6.75;61.65
83894;BME280;73920;51.902;6.374;2024-03-08T18:27:51;100798.44;;;6.73;61.82
83894;BME280;73920;51.902;6.374;2024-03-08T18:30:17;100795.03;;;6.69;61.87
83894;BME280;73920;51.902;6.374;2024-03-08T18:32:44;100795.12;;;6.68;61.67
83894;BME280;73920;51.902;6.374;2024-03-08T18:35:11;100796.13;;;6.65;61.77
83894;BME280;73920;51.902;6.374;2024-03-08T18:37:39;100791.75;;;6.63;62.00
83894;BME280;73920;51.902;6.374;2024-03-08T18:40:09;100788.31;;;6.61;61.87
83894;BME280;73920;51.902;6.374;2024-03-08T18:42:37;100784.00;;;6.58;62.25
83894;BME280;73920;51.902;6.374;2024-03-08T18:45:07;100783.13;;;6.58;62.15
83894;BME280;73920;51.902;6.374;2024-03-08T18:47:34;100770.75;;;6.57;61.95
83894;BME280;73920;51.902;6.374;2024-03-08T18:50:01;100780.47;;;6.58;62.20
83894;BME280;73920;51.902;6.374;2024-03-08T18:52:27;100771.63;;;6.57;62.31
83894;BME280;73920;51.902;6.374;2024-03-08T18:54:53;100769.03;;;6.56;62.37
83894;BME280;73920;51.902;6.374;2024-03-08T18:57:19;100771.75;;;6.54;62.52
83894;BME280;73920;51.902;6.374;2024-03-08T18:59:46;100766.44;;;6.54;62.47
83894;BME280;73920;51.902;6.374;2024-03-08T19:02:12;100767.41;;;6.52;62.62
83894;BME280;73920;51.902;6.374;2024-03-08T19:04:38;100768.41;;;6.49;62.76
83894;BME280;73920;51.902;6.374;2024-03-08T19:07:05;100759.69;;;6.46;62.93
83894;BME280;73920;51.902;6.374;2024-03-08T19:09:31;100756.28;;;6.42;63.00
83894;BME280;73920;51.902;6.374;2024-03-08T19:11:57;100748.38;;;6.40;63.08
83894;BME280;73920;51.902;6.374;2024-03-08T19:14:24;100757.28;;;6.39;62.99
83894;BME280;73920;51.902;6.374;2024-03-08T19:16:50;100752.09;;;6.36;63.09
83894;BME280;73920;51.902;6.374;2024-03-08T19:19:16;100753.00;;;6.35;63.21
83894;BME280;73920;51.902;6.374;2024-03-08T19:21:42;100746.88;;;6.33;63.25
83894;BME280;73920;51.902;6.374;2024-03-08T19:24:08;100743.44;;;6.31;63.34